Latest Weather Observations for Mortlake

IDV60801

Issued at 1:35 pm EDT Thursday 23 October 2014 (issued every 30 minutes, with the page automatically refreshed every 10 minutes)

About weather observations | Map of weather stations | Latest weather observations for VIC | Other Formats
Station Details ID: 090176 Name: MORTLAKE RACECOURSE Lat: -38.07 Lon: 142.77 Height: 130.0 m
Data from the previous 72 hours. | See also: Recent months at Mortlake
Date/Time
EDT
Temp
°C
App
Temp
°C
Dew
Point
Rel
Hum
%
Delta-T
°C
Wind Press
QNH
hPa
Press
MSL
hPa
Rain
since 9 am
mm
Dir
 
Spd
km/h
Gust
km/h
Spd
kts
Gust
kts
23/01:30pm 19.2 18.6 14.5 74 2.7 SSE 11 19 6 10 1017.7 1017.7 0.0
23/01:00pm 18.9 17.8 14.2 74 2.7 ESE 13 22 7 12 1018.2 1018.3 0.0
23/12:30pm 18.2 17.9 14.5 79 2.1 SE 9 13 5 7 1018.5 1018.6 0.0
23/12:00pm 15.6 14.4 12.9 84 1.5 SSE 11 17 6 9 1019.1 1019.2 0.0
23/11:30am 14.9 13.2 12.6 86 1.3 SE 13 19 7 10 1019.5 1019.6 0.0
23/11:00am 14.0 11.8 12.0 88 1.1 SSE 15 20 8 11 1020.1 1020.2 0.0
23/10:30am 13.9 12.1 12.1 89 1.0 SSE 13 19 7 10 1020.3 1020.4 0.0
23/10:00am 13.7 11.1 11.9 89 1.0 SSE 17 22 9 12 1020.3 1020.4 0.0
23/09:30am 13.7 11.9 12.1 90 0.9 SSE 13 19 7 10 1020.4 1020.5 0.0
23/09:00am 13.3 11.1 12.0 92 0.7 SSE 15 22 8 12 1020.3 1020.4 0.0
23/08:30am 12.9 10.7 12.0 94 0.5 SSE 15 20 8 11 1020.5 1020.6 0.0
23/08:00am 12.6 10.7 11.7 94 0.5 SSE 13 20 7 11 1020.4 1020.5 0.0
23/07:30am 12.5 10.2 11.6 94 0.5 SSE 15 22 8 12 1020.2 1020.3 0.0
23/07:00am 12.2 10.7 11.9 98 0.2 SSE 11 17 6 9 1020.1 1020.2 0.0
23/06:30am 12.4 10.1 11.6 95 0.4 SSE 15 20 8 11 1019.9 1020.0 0.0
23/06:00am 12.5 10.6 11.7 95 0.4 SSE 13 20 7 11 1019.8 1019.9 0.0
23/05:30am 12.5 10.2 11.7 95 0.4 SSE 15 24 8 13 1019.7 1019.8 0.0
23/05:00am 12.5 10.2 11.9 96 0.3 SSE 15 20 8 11 1019.7 1019.8 0.0
23/04:30am 12.6 9.4 11.8 95 0.4 SSE 20 28 11 15 1019.8 1019.9 0.0
23/04:00am 12.5 9.2 11.7 95 0.4 S 20 28 11 15 1019.6 1019.7 0.0
23/03:30am 12.4 9.4 12.1 98 0.2 SSE 19 26 10 14 1019.4 1019.5 0.0
23/03:00am 12.3 10.1 12.1 99 0.1 S 15 22 8 12 1019.6 1019.7 0.0
23/02:30am 12.3 10.1 12.1 99 0.1 S 15 20 8 11 1019.7 1019.8 0.0
23/02:00am 12.4 10.6 12.2 99 0.1 S 13 19 7 10 1019.8 1019.9 0.0
23/01:30am 12.4 9.9 12.2 99 0.1 S 17 24 9 13 1020.1 1020.2 0.0
23/01:00am 12.5 9.6 12.2 98 0.2 S 19 24 10 13 1020.3 1020.4 0.0
23/12:30am 12.6 10.0 12.1 97 0.3 S 17 22 9 12 1020.2 1020.3 0.0
23/12:00am 12.7 10.5 12.2 97 0.3 SSW 15 22 8 12 1019.9 1020.0 0.0
 
Date/Time
EDT
Temp
°C
App
Temp
°C
Dew
Point
Rel
Hum
%
Delta-T
°C
Wind Press
QNH
hPa
Press
MSL
hPa
Rain
since 9 am
mm
Dir
 
Spd
km/h
Gust
km/h
Spd
kts
Gust
kts
22/11:30pm 12.8 10.7 12.3 97 0.3 SSW 15 22 8 12 1020.0 1020.1 0.0
22/11:00pm 12.9 10.4 12.4 97 0.3 S 17 22 9 12 1020.1 1020.2 0.0
22/10:30pm 13.0 11.4 12.7 98 0.2 S 13 19 7 10 1020.2 1020.3 0.0
22/10:00pm 13.1 10.8 12.9 99 0.1 S 17 22 9 12 1020.2 1020.3 0.0
22/09:30pm 13.1 10.4 12.9 99 0.1 SSW 19 28 10 15 1020.0 1020.1 0.0
22/09:00pm 13.1 10.2 12.9 99 0.1 S 20 32 11 17 1019.7 1019.8 0.0
22/08:30pm 13.4 11.9 13.2 99 0.1 SSW 13 22 7 12 1019.4 1019.5 0.0
22/08:00pm 13.6 10.9 13.4 99 0.1 SSW 20 28 11 15 1019.1 1019.2 0.0
22/07:30pm 14.4 11.3 13.4 94 0.6 SSW 22 30 12 16 1019.0 1019.1 0.0
22/07:00pm 15.6 13.1 14.0 90 0.9 WSW 20 28 11 15 1018.5 1018.6 0.0
22/06:30pm 17.8 15.5 14.7 82 1.8 SSW 20 26 11 14 1017.0 1017.0 0.0
22/06:00pm 18.6 16.2 14.5 77 2.4 S 20 26 11 14 1016.8 1016.8 0.0
22/05:30pm 20.0 17.1 15.0 73 3.0 SSW 24 33 13 18 1016.4 1016.4 0.0
22/05:00pm 22.2 18.7 14.6 62 4.5 SW 26 32 14 17 1016.4 1016.4 0.0
22/04:30pm 25.1 21.1 13.0 47 7.1 SSW 26 33 14 18 1016.1 1016.1 0.0
22/04:00pm 25.1 21.0 13.9 49 6.6 SSW 28 37 15 20 1016.1 1016.1 0.0
22/03:30pm 26.8 23.4 15.8 51 6.8 SSW 28 37 15 20 1015.9 1015.9 0.0
22/03:00pm 28.1 26.4 17.3 52 6.8 SSW 22 33 12 18 1015.8 1015.8 0.0
22/02:30pm 29.8 28.9 16.9 45 8.2 SW 17 26 9 14 1015.7 1015.7 0.0
22/02:00pm 29.9 29.2 16.3 43 8.5 SW 15 24 8 13 1016.0 1016.0 0.0
22/01:30pm 29.5 30.5 16.3 45 8.3 W 6 11 3 6 1016.1 1016.1 0.0
22/01:00pm 28.6 28.3 14.4 41 8.6 N 9 13 5 7 1016.1 1016.1 0.0
22/12:30pm 27.8 27.5 15.5 47 7.6 N 11 15 6 8 1016.5 1016.5 0.0
22/12:00pm 26.9 27.6 16.2 52 6.6 N 7 13 4 7 1016.9 1016.9 0.0
22/11:30am 25.3 25.9 15.3 54 6.1 N 6 11 3 6 1017.3 1017.3 0.0
22/11:00am 24.9 23.8 14.4 52 6.3 N 13 20 7 11 1017.5 1017.5 0.0
22/10:30am 24.7 22.9 14.5 53 6.1 N 17 22 9 12 1017.6 1017.6 0.0
22/10:00am 23.0 19.8 13.2 54 5.7 N 22 32 12 17 1017.7 1017.7 0.0
22/09:30am 22.1 18.8 12.9 56 5.3 N 22 32 12 17 1017.6 1017.6 0.0
22/09:00am 20.8 17.9 12.8 60 4.6 N 20 32 11 17 1017.8 1017.8 0.0
22/08:30am 18.4 15.4 12.4 68 3.4 N 20 28 11 15 1017.7 1017.7 0.0
22/08:00am 15.8 13.4 11.4 75 2.4 N 15 20 8 11 1017.9 1017.9 0.0
22/07:30am 16.1 13.3 11.5 74 2.5 N 17 22 9 12 1017.8 1017.8 0.0
22/07:00am 14.4 11.4 10.6 78 2.0 N 17 22 9 12 1017.7 1017.7 0.0
22/06:30am 13.7 11.3 10.1 79 1.9 N 13 17 7 9 1017.7 1017.7 0.0
22/06:00am 14.9 12.6 10.3 74 2.4 N 13 17 7 9 1017.7 1017.7 0.0
22/05:30am 15.8 11.8 10.3 70 2.9 NNE 22 28 12 15 1017.4 1017.4 0.0
22/05:00am 14.6 10.9 10.2 75 2.3 NNE 20 26 11 14 1017.4 1017.4 0.0
22/04:30am 13.2 9.5 9.3 77 2.0 N 19 22 10 12 1017.9 1017.9 0.0
22/04:00am 14.3 10.6 9.5 73 2.5 NNE 19 24 10 13 1017.8 1017.8 0.0
22/03:30am 14.3 11.3 9.3 72 2.6 NNE 15 19 8 10 1018.0 1018.0 0.0
22/03:00am 14.1 11.4 9.1 72 2.6 NNE 13 17 7 9 1018.5 1018.6 0.0
22/02:30am 14.5 11.6 9.5 72 2.6 NNE 15 20 8 11 1018.8 1018.9 0.0
22/02:00am 14.1 12.0 9.7 75 2.3 NE 11 17 6 9 1019.4 1019.5 0.0
22/01:30am 14.2 12.3 10.4 78 2.0 NNE 11 15 6 8 1019.8 1019.9 0.0
22/01:00am 13.0 12.1 10.7 86 1.2 ENE 6 9 3 5 1020.0 1020.1 0.0
22/12:30am 13.1 12.7 11.2 88 1.0 ESE 4 7 2 4 1020.5 1020.6 0.0
22/12:00am 14.2 12.4 12.1 87 1.1 E 13 17 7 9 1020.8 1020.9 0.0
 
Date/Time
EDT
Temp
°C
App
Temp
°C
Dew
Point
Rel
Hum
%
Delta-T
°C
Wind Press
QNH
hPa
Press
MSL
hPa
Rain
since 9 am
mm
Dir
 
Spd
km/h
Gust
km/h
Spd
kts
Gust
kts
21/11:30pm 14.8 13.5 12.5 86 1.3 E 11 19 6 10 1021.2 1021.3 0.0
21/11:00pm 15.4 13.8 12.7 84 1.5 ENE 13 19 7 10 1021.3 1021.4 0.0
21/10:30pm 15.8 13.8 12.7 82 1.7 ENE 15 20 8 11 1021.5 1021.6 0.0
21/10:00pm 16.7 14.4 13.0 79 2.1 E 17 24 9 13 1021.5 1021.6 0.0
21/09:30pm 17.2 14.6 13.3 78 2.2 E 19 30 10 16 1021.5 1021.6 0.0
21/09:00pm 18.0 15.6 13.9 77 2.3 E 19 26 10 14 1021.4 1021.5 0.0
21/08:30pm 19.3 17.4 14.3 73 2.9 E 17 22 9 12 1021.2 1021.3 0.0
21/08:00pm 20.6 19.8 14.0 66 3.8 E 11 19 6 10 1021.3 1021.4 0.0
21/07:30pm 22.9 22.9 13.7 56 5.4 E 6 7 3 4 1021.2 1021.3 0.0
21/07:00pm 24.9 24.7 13.5 49 6.7 E 7 13 4 7 1020.9 1021.0 0.0
21/06:30pm 26.0 25.3 13.2 45 7.5 E 9 17 5 9 1021.0 1021.1 0.0
21/06:00pm 25.3 25.5 14.1 50 6.6 E 6 7 3 4 1021.2 1021.3 0.0
21/05:30pm 25.8 25.5 12.6 44 7.7 ENE 6 9 3 5 1021.4 1021.5 0.0
21/05:00pm 26.7 25.9 11.6 39 8.6 NE 7 11 4 6 1021.4 1021.5 0.0
21/04:30pm 26.9 26.1 11.8 39 8.7 NE 7 11 4 6 1021.6 1021.7 0.0
21/04:00pm 26.9 25.4 10.6 36 9.2 N 9 13 5 7 1022.0 1022.0 0.0
21/03:30pm 26.9 26.3 12.2 40 8.5 ENE 7 13 4 7 1022.3 1022.3 0.0
21/03:00pm 26.4 25.6 10.9 38 8.8 N 6 9 3 5 1022.7 1022.7 0.0
21/02:30pm 25.6 24.5 12.1 43 7.8 NNE 9 19 5 10 1023.1 1023.1 0.0
21/02:00pm 25.3 23.5 10.7 40 8.2 NNE 11 19 6 10 1023.5 1023.5 0.0
21/01:30pm 24.9 23.5 12.2 45 7.3 NNE 11 20 6 11 1023.9 1023.9 0.0
21/01:00pm 23.6 21.3 11.6 47 6.8 N 15 19 8 10 1024.2 1024.2 0.0
21/12:30pm 22.5 19.7 11.3 49 6.3 NNE 17 22 9 12 1024.6 1024.7 0.0
21/12:00pm 21.6 19.3 11.6 53 5.6 NNE 15 20 8 11 1024.9 1025.0 0.0
21/11:30am 20.4 18.4 11.6 57 4.9 NNE 13 20 7 11 1025.2 1025.3 0.0
21/11:00am 18.8 16.5 11.6 63 4.0 NNE 15 20 8 11 1025.3 1025.4 0.0
21/10:30am 17.3 14.6 11.6 69 3.1 NNE 17 22 9 12 1025.5 1025.6 0.0
21/10:00am 16.0 12.9 11.6 75 2.4 NE 19 24 10 13 1025.6 1025.7 0.0
21/09:30am 14.0 10.6 10.4 79 1.9 NE 19 26 10 14 1025.6 1025.7 0.0
21/09:00am 12.4 9.3 10.3 87 1.1 ENE 17 26 9 14 1025.6 1025.7 0.0
21/08:30am 10.8 7.5 9.6 92 0.6 ENE 17 30 9 16 1025.7 1025.8 0.0
21/08:00am 9.6 5.1 8.5 93 0.5 ENE 22 33 12 18 1025.4 1025.5 0.0
21/07:30am 8.5 5.2 7.9 96 0.3 NE 15 24 8 13 1025.5 1025.6 0.0
21/07:00am 8.0 4.2 7.6 97 0.2 ENE 17 28 9 15 1025.2 1025.3 0.0
21/06:30am 7.2 5.2 6.9 98 0.1 NE 7 15 4 8 1025.1 1025.2 0.0
21/06:00am 6.9 4.8 6.6 98 0.1 NE 7 13 4 7 1025.2 1025.3 0.0
21/05:30am 6.9 4.8 6.5 97 0.2 ENE 7 13 4 7 1025.2 1025.3 0.0
21/05:00am 7.2 4.8 6.9 98 0.1 NE 9 13 5 7 1025.3 1025.4 0.0
21/04:30am 7.0 4.5 6.6 97 0.2 NE 9 13 5 7 1025.5 1025.6 0.0
21/04:00am 7.4 4.5 6.7 95 0.3 NE 11 17 6 9 1025.3 1025.4 0.0
21/03:30am 8.0 5.2 7.1 94 0.4 ENE 11 15 6 8 1025.4 1025.5 0.0
21/03:00am 8.1 5.7 7.2 94 0.4 ENE 9 17 5 9 1025.8 1025.9 0.0
21/02:30am 7.8 5.8 7.1 95 0.3 ENE 7 13 4 7 1026.4 1026.5 0.0
21/02:00am 8.1 6.1 7.3 95 0.4 ENE 7 11 4 6 1026.7 1026.8 0.0
21/01:30am 8.3 6.4 7.7 96 0.3 E 7 17 4 9 1027.1 1027.2 0.0
21/01:00am 8.2 6.5 7.6 96 0.3 ENE 6 11 3 6 1027.6 1027.7 0.0
21/12:30am 8.3 6.7 7.9 97 0.2 E 6 13 3 7 1027.6 1027.7 0.0
21/12:00am 8.4 6.7 7.6 95 0.4 E 6 11 3 6 1027.7 1027.8 0.0
 
Date/Time
EDT
Temp
°C
App
Temp
°C
Dew
Point
Rel
Hum
%
Delta-T
°C
Wind Press
QNH
hPa
Press
MSL
hPa
Rain
since 9 am
mm
Dir
 
Spd
km/h
Gust
km/h
Spd
kts
Gust
kts
20/11:30pm 8.8 6.3 8.2 96 0.3 E 11 19 6 10 1027.7 1027.8 0.0
20/11:00pm 8.8 5.9 8.2 96 0.3 E 13 17 7 9 1027.8 1027.9 0.0
20/10:30pm 8.9 7.1 8.1 95 0.4 E 7 13 4 7 1028.2 1028.3 0.0
20/10:00pm 9.4 7.3 8.3 93 0.5 E 9 17 5 9 1028.4 1028.5 0.0
20/09:30pm 9.6 7.5 8.2 91 0.7 E 9 15 5 8 1028.4 1028.5 0.0
20/09:00pm 10.1 6.9 8.4 89 0.8 E 15 20 8 11 1028.1 1028.2 0.0
20/08:30pm 10.5 6.8 8.1 85 1.2 E 17 28 9 15 1028.0 1028.1 0.0
20/08:00pm 11.2 7.9 7.9 80 1.6 E 15 24 8 13 1028.1 1028.2 0.0
20/07:30pm 12.5 8.4 8.0 74 2.2 E 19 32 10 17 1028.0 1028.1 0.0
20/07:00pm 13.6 8.9 7.8 68 2.9 ESE 22 33 12 18 1027.5 1027.6 0.0
20/06:30pm 14.5 9.8 7.8 64 3.3 ESE 22 33 12 18 1027.6 1027.7 0.0
20/06:00pm 15.3 9.9 8.1 62 3.6 ESE 26 35 14 19 1027.7 1027.8 0.0
20/05:30pm 15.8 10.6 7.3 57 4.2 ESE 24 33 13 18 1028.0 1028.1 0.0
20/05:00pm 16.5 11.4 7.7 56 4.4 ESE 24 35 13 19 1028.1 1028.2 0.0
20/04:30pm 16.0 10.8 5.3 49 5.1 ESE 22 35 12 19 1028.1 1028.2 0.0
20/04:00pm 16.4 10.8 5.4 48 5.3 ESE 24 32 13 17 1028.2 1028.3 0.0
20/03:30pm 16.4 11.5 5.1 47 5.4 E 20 33 11 18 1028.4 1028.5 0.0
20/03:00pm 16.4 11.6 5.7 49 5.2 E 20 30 11 16 1028.6 1028.7 0.0
20/02:30pm 16.3 11.2 5.9 50 5.1 E 22 33 12 18 1028.9 1029.0 0.0
20/02:00pm 16.0 10.6 6.4 53 4.7 ESE 24 37 13 20 1029.2 1029.3 0.0

Other Formats:

Comma delimited format used in spreadsheet applications
http://www.bom.gov.au/fwo/IDV60801/IDV60801.94840.axf

JavaScript Object Notation format (JSON) in row-major order
http://www.bom.gov.au/fwo/IDV60801/IDV60801.94840.json